Prestwick, United Kingdom

9:05 AM BST on August 04, 2015 (GMT +0100)
Ayr Scotland | | Change Station
CLOSE
Current Station
Personal Weather Station
Location: Ayr,
Elevation: 59 ft
Nearby Weather Stations

Elev 59 ft 55.44 °N, 4.62 °W | Updated 14 seconds ago

Overcast
Overcast
58.3 °F
Feels Like 58.3 °F
N
4.3
Wind Variable Wind from SSW
Gusts 4.9 mph

Today
High -- | Low -- °F
--% Chance of Precip.
Yesterday
High -- | Low -- °F
Precip. -- in
5:29 AM 9:18 PM
Waning Gibbous, 80% visible
Pressure 29.47 in
Visibility 6.2 miles
Clouds Scattered Clouds 2100 ft
Dew Point 53 °F
Humidity 84%
Rainfall 0.27 in
Snow Depth Not available.
UV 2.0 out of 12
Pollen Not available.
Air Quality Not available.
Flu Activity Not available.
METAR EGPK 040750Z 19020KT 9999 -RA SCT021 14/12 Q0998

More Conditions Fewer Conditions

Pressure 29.47 in
Visibility 6.2 miles
Clouds Scattered Clouds 2100 ft
Dew Point 53 °F
Humidity 84%
Rainfall 0.27 in
Snow Depth Not available.
UV 2.0 out of 12
Pollen Not available.
Air Quality Not available.
Flu Activity Not available.
METAR EGPK 040750Z 19020KT 9999 -RA SCT021 14/12 Q0998

More Conditions Fewer Conditions

10-Day Weather Forecast

×

Almanac

Astronomy

Aug. 04, 2015 Rise Set
Actual Time
Civil Twilight
Nautical Twilight
Astronomical Twilight
Moon
Length of Visible Light
Length of Day
Tomorrow will be .
, % of the Moon is Illuminated

Today's Extremes

Country Highs Country Lows

Community

WunderPhotos

Upload Photos

1,843,877 photos uploaded!

WunderBlogs® & News

Nearby

Air Quality

  Air Quality AQ Index Pollutant
Not available.

Snow Depth

Station Depth Elevation

Earthquake Activity

City Distance Mag. Time & Date
Minimum magnitude displayed is 2.5.

Coastal Water Temperatures

Place Temperature

Stations

Nearby Weather Stations

Station Location Temp. Windchill Dew Point Humidity Wind Precip. Elev Updated Type